sensor_id;sensor_type;location;lat;lon;timestamp;P1;durP1;ratioP1;P2;durP2;ratioP2
6195;SDS011;3131;42.630;23.382;2023-09-18T00:00:34;24.10;;;18.93;;
6195;SDS011;3131;42.630;23.382;2023-09-18T00:03:03;27.43;;;19.53;;
6195;SDS011;3131;42.630;23.382;2023-09-18T00:05:30;28.17;;;20.50;;
6195;SDS011;3131;42.630;23.382;2023-09-18T00:07:59;29.37;;;20.37;;
6195;SDS011;3131;42.630;23.382;2023-09-18T00:10:28;32.23;;;22.10;;
6195;SDS011;3131;42.630;23.382;2023-09-18T00:12:56;30.20;;;22.87;;
6195;SDS011;3131;42.630;23.382;2023-09-18T00:15:24;36.47;;;23.53;;
6195;SDS011;3131;42.630;23.382;2023-09-18T00:17:52;36.50;;;23.63;;
6195;SDS011;3131;42.630;23.382;2023-09-18T00:20:20;33.43;;;23.30;;
6195;SDS011;3131;42.630;23.382;2023-09-18T00:22:49;36.83;;;26.13;;
6195;SDS011;3131;42.630;23.382;2023-09-18T00:25:17;37.90;;;24.73;;
6195;SDS011;3131;42.630;23.382;2023-09-18T00:27:45;38.23;;;27.20;;
6195;SDS011;3131;42.630;23.382;2023-09-18T00:30:12;38.87;;;27.80;;
6195;SDS011;3131;42.630;23.382;2023-09-18T00:32:40;39.17;;;27.20;;
6195;SDS011;3131;42.630;23.382;2023-09-18T00:35:08;40.33;;;27.80;;
6195;SDS011;3131;42.630;23.382;2023-09-18T00:37:35;37.60;;;25.13;;
6195;SDS011;3131;42.630;23.382;2023-09-18T00:40:06;35.47;;;24.30;;
6195;SDS011;3131;42.630;23.382;2023-09-18T00:42:34;37.07;;;24.40;;
6195;SDS011;3131;42.630;23.382;2023-09-18T00:45:02;33.90;;;23.77;;
6195;SDS011;3131;42.630;23.382;2023-09-18T00:47:30;37.23;;;24.37;;
6195;SDS011;3131;42.630;23.382;2023-09-18T00:49:57;34.07;;;25.13;;
6195;SDS011;3131;42.630;23.382;2023-09-18T00:52:25;36.90;;;25.37;;
6195;SDS011;3131;42.630;23.382;2023-09-18T00:54:54;37.57;;;26.33;;
6195;SDS011;3131;42.630;23.382;2023-09-18T00:57:22;36.97;;;25.87;;
6195;SDS011;3131;42.630;23.382;2023-09-18T00:59:50;34.70;;;25.40;;
6195;SDS011;3131;42.630;23.382;2023-09-18T01:02:18;37.57;;;25.73;;
6195;SDS011;3131;42.630;23.382;2023-09-18T01:04:47;38.27;;;25.83;;
6195;SDS011;3131;42.630;23.382;2023-09-18T01:07:15;39.67;;;25.83;;
6195;SDS011;3131;42.630;23.382;2023-09-18T01:09:42;35.43;;;25.53;;
6195;SDS011;3131;42.630;23.382;2023-09-18T01:12:11;35.03;;;24.43;;
6195;SDS011;3131;42.630;23.382;2023-09-18T01:14:41;40.27;;;26.47;;
6195;SDS011;3131;42.630;23.382;2023-09-18T01:17:09;39.93;;;25.20;;
6195;SDS011;3131;42.630;23.382;2023-09-18T01:19:38;35.10;;;23.57;;
6195;SDS011;3131;42.630;23.382;2023-09-18T01:22:06;32.07;;;23.53;;
6195;SDS011;3131;42.630;23.382;2023-09-18T01:24:34;34.83;;;24.80;;
6195;SDS011;3131;42.630;23.382;2023-09-18T01:27:02;29.23;;;21.57;;
6195;SDS011;3131;42.630;23.382;2023-09-18T01:29:30;28.80;;;21.30;;
6195;SDS011;3131;42.630;23.382;2023-09-18T01:31:57;30.53;;;20.50;;
6195;SDS011;3131;42.630;23.382;2023-09-18T01:34:26;31.37;;;19.33;;
6195;SDS011;3131;42.630;23.382;2023-09-18T01:36:54;23.13;;;17.03;;
6195;SDS011;3131;42.630;23.382;2023-09-18T01:39:23;27.40;;;19.47;;
6195;SDS011;3131;42.630;23.382;2023-09-18T01:41:52;26.80;;;19.60;;
6195;SDS011;3131;42.630;23.382;2023-09-18T01:44:20;29.70;;;18.83;;
6195;SDS011;3131;42.630;23.382;2023-09-18T01:46:48;31.17;;;20.03;;
6195;SDS011;3131;42.630;23.382;2023-09-18T01:49:19;24.50;;;17.57;;
6195;SDS011;3131;42.630;23.382;2023-09-18T01:51:46;31.30;;;19.90;;
6195;SDS011;3131;42.630;23.382;2023-09-18T01:54:15;30.57;;;20.27;;
6195;SDS011;3131;42.630;23.382;2023-09-18T01:56:43;27.43;;;19.50;;
6195;SDS011;3131;42.630;23.382;2023-09-18T01:59:10;32.70;;;20.40;;
6195;SDS011;3131;42.630;23.382;2023-09-18T02:01:37;30.53;;;21.87;;
6195;SDS011;3131;42.630;23.382;2023-09-18T02:04:05;30.10;;;21.10;;
6195;SDS011;3131;42.630;23.382;2023-09-18T02:06:33;28.73;;;20.37;;
6195;SDS011;3131;42.630;23.382;2023-09-18T02:09:01;26.93;;;18.93;;
6195;SDS011;3131;42.630;23.382;2023-09-18T02:11:29;35.27;;;22.23;;
6195;SDS011;3131;42.630;23.382;2023-09-18T02:13:57;27.17;;;20.53;;
6195;SDS011;3131;42.630;23.382;2023-09-18T02:16:24;32.63;;;21.43;;
6195;SDS011;3131;42.630;23.382;2023-09-18T02:18:53;33.13;;;21.47;;
6195;SDS011;3131;42.630;23.382;2023-09-18T02:21:22;30.83;;;21.77;;
6195;SDS011;3131;42.630;23.382;2023-09-18T02:23:49;28.23;;;19.73;;
6195;SDS011;3131;42.630;23.382;2023-09-18T02:26:17;28.47;;;20.03;;
6195;SDS011;3131;42.630;23.382;2023-09-18T02:28:45;28.33;;;19.90;;
6195;SDS011;3131;42.630;23.382;2023-09-18T02:31:13;27.37;;;18.67;;
6195;SDS011;3131;42.630;23.382;2023-09-18T02:33:40;26.53;;;18.77;;
6195;SDS011;3131;42.630;23.382;2023-09-18T02:36:08;25.20;;;18.63;;
6195;SDS011;3131;42.630;23.382;2023-09-18T02:38:36;23.90;;;18.27;;
6195;SDS011;3131;42.630;23.382;2023-09-18T02:41:03;23.23;;;18.00;;
6195;SDS011;3131;42.630;23.382;2023-09-18T02:43:31;23.97;;;16.87;;
6195;SDS011;3131;42.630;23.382;2023-09-18T02:45:58;27.50;;;16.83;;
6195;SDS011;3131;42.630;23.382;2023-09-18T02:48:26;44.57;;;18.03;;
6195;SDS011;3131;42.630;23.382;2023-09-18T02:50:54;26.67;;;16.97;;
6195;SDS011;3131;42.630;23.382;2023-09-18T02:53:21;33.93;;;19.53;;
6195;SDS011;3131;42.630;23.382;2023-09-18T02:55:50;24.07;;;17.33;;
6195;SDS011;3131;42.630;23.382;2023-09-18T02:58:18;27.77;;;19.03;;
6195;SDS011;3131;42.630;23.382;2023-09-18T03:00:46;25.77;;;17.43;;
6195;SDS011;3131;42.630;23.382;2023-09-18T03:03:14;25.67;;;17.90;;
6195;SDS011;3131;42.630;23.382;2023-09-18T03:05:42;28.53;;;19.37;;
6195;SDS011;3131;42.630;23.382;2023-09-18T03:08:10;25.90;;;18.67;;
6195;SDS011;3131;42.630;23.382;2023-09-18T03:10:38;40.70;;;22.13;;
6195;SDS011;3131;42.630;23.382;2023-09-18T03:13:07;31.67;;;19.63;;
6195;SDS011;3131;42.630;23.382;2023-09-18T03:15:35;31.67;;;20.77;;
6195;SDS011;3131;42.630;23.382;2023-09-18T03:18:03;30.47;;;20.37;;
6195;SDS011;3131;42.630;23.382;2023-09-18T03:20:31;29.73;;;20.53;;
6195;SDS011;3131;42.630;23.382;2023-09-18T03:22:59;35.20;;;21.30;;
6195;SDS011;3131;42.630;23.382;2023-09-18T03:25:27;28.10;;;19.80;;
6195;SDS011;3131;42.630;23.382;2023-09-18T03:27:55;39.73;;;26.73;;
6195;SDS011;3131;42.630;23.382;2023-09-18T03:30:23;90.60;;;57.00;;
6195;SDS011;3131;42.630;23.382;2023-09-18T03:32:51;35.67;;;22.57;;
6195;SDS011;3131;42.630;23.382;2023-09-18T03:35:20;36.50;;;24.37;;
6195;SDS011;3131;42.630;23.382;2023-09-18T03:37:48;33.40;;;22.53;;
6195;SDS011;3131;42.630;23.382;2023-09-18T03:40:17;36.37;;;24.37;;
6195;SDS011;3131;42.630;23.382;2023-09-18T03:42:45;35.77;;;23.90;;
6195;SDS011;3131;42.630;23.382;2023-09-18T03:45:13;35.53;;;24.33;;
6195;SDS011;3131;42.630;23.382;2023-09-18T03:47:41;38.30;;;24.63;;
6195;SDS011;3131;42.630;23.382;2023-09-18T03:50:09;38.07;;;24.33;;
6195;SDS011;3131;42.630;23.382;2023-09-18T03:52:37;41.10;;;25.13;;
6195;SDS011;3131;42.630;23.382;2023-09-18T03:55:06;35.90;;;24.97;;
6195;SDS011;3131;42.630;23.382;2023-09-18T03:57:34;48.80;;;23.73;;
6195;SDS011;3131;42.630;23.382;2023-09-18T04:00:03;32.73;;;23.13;;
6195;SDS011;3131;42.630;23.382;2023-09-18T04:02:31;34.60;;;22.67;;
6195;SDS011;3131;42.630;23.382;2023-09-18T04:05:00;39.53;;;22.43;;
6195;SDS011;3131;42.630;23.382;2023-09-18T04:07:28;31.50;;;21.03;;
6195;SDS011;3131;42.630;23.382;2023-09-18T04:09:55;33.33;;;23.20;;
6195;SDS011;3131;42.630;23.382;2023-09-18T04:12:23;37.80;;;23.17;;
6195;SDS011;3131;42.630;23.382;2023-09-18T04:14:51;58.13;;;24.87;;
6195;SDS011;3131;42.630;23.382;2023-09-18T04:17:18;44.27;;;24.87;;
6195;SDS011;3131;42.630;23.382;2023-09-18T04:19:47;35.27;;;24.13;;
6195;SDS011;3131;42.630;23.382;2023-09-18T04:22:14;35.63;;;24.73;;
6195;SDS011;3131;42.630;23.382;2023-09-18T04:24:42;39.57;;;26.80;;
6195;SDS011;3131;42.630;23.382;2023-09-18T04:27:10;47.37;;;26.80;;
6195;SDS011;3131;42.630;23.382;2023-09-18T04:29:37;39.43;;;25.33;;
6195;SDS011;3131;42.630;23.382;2023-09-18T04:32:06;45.13;;;27.13;;
6195;SDS011;3131;42.630;23.382;2023-09-18T04:34:33;44.03;;;27.20;;
6195;SDS011;3131;42.630;23.382;2023-09-18T04:37:01;42.13;;;26.27;;
6195;SDS011;3131;42.630;23.382;2023-09-18T04:39:30;42.53;;;27.53;;
6195;SDS011;3131;42.630;23.382;2023-09-18T04:41:59;49.90;;;27.57;;
6195;SDS011;3131;42.630;23.382;2023-09-18T04:44:27;49.47;;;26.73;;
6195;SDS011;3131;42.630;23.382;2023-09-18T04:46:54;53.23;;;29.10;;
6195;SDS011;3131;42.630;23.382;2023-09-18T04:49:24;49.17;;;27.37;;
6195;SDS011;3131;42.630;23.382;2023-09-18T04:51:51;47.83;;;28.23;;
6195;SDS011;3131;42.630;23.382;2023-09-18T04:54:19;46.47;;;29.20;;
6195;SDS011;3131;42.630;23.382;2023-09-18T04:56:47;49.43;;;27.47;;
6195;SDS011;3131;42.630;23.382;2023-09-18T04:59:14;43.90;;;27.10;;
6195;SDS011;3131;42.630;23.382;2023-09-18T05:01:42;51.80;;;26.40;;
6195;SDS011;3131;42.630;23.382;2023-09-18T05:04:11;48.87;;;26.77;;
6195;SDS011;3131;42.630;23.382;2023-09-18T05:06:39;39.60;;;25.50;;
6195;SDS011;3131;42.630;23.382;2023-09-18T05:09:08;42.37;;;24.97;;
6195;SDS011;3131;42.630;23.382;2023-09-18T05:11:35;41.23;;;23.50;;
6195;SDS011;3131;42.630;23.382;2023-09-18T05:14:03;44.67;;;24.90;;
6195;SDS011;3131;42.630;23.382;2023-09-18T05:16:31;44.23;;;26.27;;
6195;SDS011;3131;42.630;23.382;2023-09-18T05:18:58;43.17;;;24.33;;
6195;SDS011;3131;42.630;23.382;2023-09-18T05:21:26;45.17;;;24.73;;
6195;SDS011;3131;42.630;23.382;2023-09-18T05:23:53;44.80;;;23.13;;
6195;SDS011;3131;42.630;23.382;2023-09-18T05:26:21;43.00;;;24.80;;
6195;SDS011;3131;42.630;23.382;2023-09-18T05:28:50;39.93;;;25.20;;
6195;SDS011;3131;42.630;23.382;2023-09-18T05:31:20;44.90;;;25.03;;
6195;SDS011;3131;42.630;23.382;2023-09-18T05:33:47;40.07;;;25.33;;
6195;SDS011;3131;42.630;23.382;2023-09-18T05:36:15;51.27;;;25.27;;
6195;SDS011;3131;42.630;23.382;2023-09-18T05:38:43;35.63;;;22.83;;
6195;SDS011;3131;42.630;23.382;2023-09-18T05:41:11;34.20;;;22.27;;
6195;SDS011;3131;42.630;23.382;2023-09-18T05:43:38;36.60;;;22.83;;
6195;SDS011;3131;42.630;23.382;2023-09-18T05:46:06;36.93;;;24.27;;
6195;SDS011;3131;42.630;23.382;2023-09-18T05:48:33;35.00;;;22.60;;
6195;SDS011;3131;42.630;23.382;2023-09-18T05:51:01;38.30;;;22.33;;
6195;SDS011;3131;42.630;23.382;2023-09-18T05:53:30;40.97;;;23.53;;
6195;SDS011;3131;42.630;23.382;2023-09-18T05:55:57;38.83;;;21.27;;
6195;SDS011;3131;42.630;23.382;2023-09-18T05:58:27;36.17;;;21.77;;
6195;SDS011;3131;42.630;23.382;2023-09-18T06:00:54;34.80;;;21.43;;
6195;SDS011;3131;42.630;23.382;2023-09-18T06:03:22;40.50;;;22.57;;
6195;SDS011;3131;42.630;23.382;2023-09-18T06:05:49;41.03;;;23.07;;
6195;SDS011;3131;42.630;23.382;2023-09-18T06:08:17;30.10;;;20.73;;
6195;SDS011;3131;42.630;23.382;2023-09-18T06:10:45;35.53;;;21.10;;
6195;SDS011;3131;42.630;23.382;2023-09-18T06:13:13;33.67;;;21.60;;
6195;SDS011;3131;42.630;23.382;2023-09-18T06:15:41;30.37;;;18.90;;
6195;SDS011;3131;42.630;23.382;2023-09-18T06:18:08;32.00;;;18.23;;
6195;SDS011;3131;42.630;23.382;2023-09-18T06:20:36;27.90;;;17.47;;
6195;SDS011;3131;42.630;23.382;2023-09-18T06:23:04;25.97;;;16.70;;
6195;SDS011;3131;42.630;23.382;2023-09-18T06:25:31;25.73;;;17.63;;
6195;SDS011;3131;42.630;23.382;2023-09-18T06:27:59;26.33;;;17.73;;
6195;SDS011;3131;42.630;23.382;2023-09-18T06:30:26;47.63;;;19.77;;
6195;SDS011;3131;42.630;23.382;2023-09-18T06:32:54;38.20;;;20.07;;
6195;SDS011;3131;42.630;23.382;2023-09-18T06:35:21;26.40;;;16.83;;
6195;SDS011;3131;42.630;23.382;2023-09-18T06:37:49;26.70;;;17.83;;
6195;SDS011;3131;42.630;23.382;2023-09-18T06:40:17;25.03;;;15.97;;
6195;SDS011;3131;42.630;23.382;2023-09-18T06:42:45;27.37;;;17.33;;
6195;SDS011;3131;42.630;23.382;2023-09-18T06:45:12;31.10;;;18.80;;
6195;SDS011;3131;42.630;23.382;2023-09-18T06:47:40;30.53;;;18.40;;
6195;SDS011;3131;42.630;23.382;2023-09-18T06:50:08;28.53;;;17.00;;
6195;SDS011;3131;42.630;23.382;2023-09-18T06:52:37;26.10;;;16.17;;
6195;SDS011;3131;42.630;23.382;2023-09-18T06:55:05;23.37;;;16.13;;
6195;SDS011;3131;42.630;23.382;2023-09-18T06:57:33;24.77;;;16.20;;
6195;SDS011;3131;42.630;23.382;2023-09-18T07:00:01;29.20;;;16.90;;
6195;SDS011;3131;42.630;23.382;2023-09-18T07:02:29;24.37;;;16.40;;
6195;SDS011;3131;42.630;23.382;2023-09-18T07:04:56;25.33;;;15.20;;
6195;SDS011;3131;42.630;23.382;2023-09-18T07:07:24;22.47;;;15.77;;
6195;SDS011;3131;42.630;23.382;2023-09-18T07:09:51;24.43;;;16.50;;
6195;SDS011;3131;42.630;23.382;2023-09-18T07:12:19;26.70;;;15.50;;
6195;SDS011;3131;42.630;23.382;2023-09-18T07:14:46;24.87;;;16.17;;
6195;SDS011;3131;42.630;23.382;2023-09-18T07:17:14;28.40;;;16.93;;
6195;SDS011;3131;42.630;23.382;2023-09-18T07:19:42;25.03;;;16.30;;
6195;SDS011;3131;42.630;23.382;2023-09-18T07:22:10;24.40;;;14.70;;
6195;SDS011;3131;42.630;23.382;2023-09-18T07:24:37;21.43;;;15.07;;
6195;SDS011;3131;42.630;23.382;2023-09-18T07:27:07;27.77;;;15.87;;
6195;SDS011;3131;42.630;23.382;2023-09-18T07:29:34;43.07;;;17.33;;
6195;SDS011;3131;42.630;23.382;2023-09-18T07:32:02;32.17;;;17.43;;
6195;SDS011;3131;42.630;23.382;2023-09-18T07:34:30;23.23;;;14.63;;
6195;SDS011;3131;42.630;23.382;2023-09-18T07:36:58;23.00;;;15.53;;
6195;SDS011;3131;42.630;23.382;2023-09-18T07:39:25;26.83;;;16.10;;
6195;SDS011;3131;42.630;23.382;2023-09-18T07:41:53;21.70;;;15.17;;
6195;SDS011;3131;42.630;23.382;2023-09-18T07:44:22;27.03;;;16.00;;
6195;SDS011;3131;42.630;23.382;2023-09-18T07:46:49;23.73;;;16.17;;
6195;SDS011;3131;42.630;23.382;2023-09-18T07:49:17;25.77;;;16.47;;
6195;SDS011;3131;42.630;23.382;2023-09-18T07:51:44;22.03;;;14.80;;
6195;SDS011;3131;42.630;23.382;2023-09-18T07:54:14;20.63;;;15.10;;
6195;SDS011;3131;42.630;23.382;2023-09-18T07:56:42;19.67;;;13.37;;
6195;SDS011;3131;42.630;23.382;2023-09-18T07:59:10;21.23;;;14.77;;
6195;SDS011;3131;42.630;23.382;2023-09-18T08:01:37;21.53;;;14.87;;
6195;SDS011;3131;42.630;23.382;2023-09-18T08:04:05;21.63;;;14.30;;
6195;SDS011;3131;42.630;23.382;2023-09-18T08:06:33;19.97;;;14.20;;
6195;SDS011;3131;42.630;23.382;2023-09-18T08:09:00;24.40;;;16.10;;
6195;SDS011;3131;42.630;23.382;2023-09-18T08:11:28;22.70;;;14.40;;
6195;SDS011;3131;42.630;23.382;2023-09-18T08:13:55;25.07;;;15.77;;
6195;SDS011;3131;42.630;23.382;2023-09-18T08:16:23;30.30;;;15.43;;
6195;SDS011;3131;42.630;23.382;2023-09-18T08:18:50;18.43;;;13.70;;
6195;SDS011;3131;42.630;23.382;2023-09-18T08:21:19;22.30;;;14.63;;
6195;SDS011;3131;42.630;23.382;2023-09-18T08:23:46;18.73;;;14.73;;
6195;SDS011;3131;42.630;23.382;2023-09-18T08:26:14;22.20;;;15.17;;
6195;SDS011;3131;42.630;23.382;2023-09-18T08:28:42;17.23;;;13.43;;
6195;SDS011;3131;42.630;23.382;2023-09-18T08:31:10;20.43;;;13.23;;
6195;SDS011;3131;42.630;23.382;2023-09-18T08:33:37;25.07;;;15.50;;
6195;SDS011;3131;42.630;23.382;2023-09-18T08:36:05;24.27;;;14.40;;
6195;SDS011;3131;42.630;23.382;2023-09-18T08:38:32;16.53;;;12.17;;
6195;SDS011;3131;42.630;23.382;2023-09-18T08:41:00;25.77;;;12.63;;
6195;SDS011;3131;42.630;23.382;2023-09-18T08:43:29;19.10;;;11.80;;
6195;SDS011;3131;42.630;23.382;2023-09-18T08:45:58;17.50;;;11.67;;
6195;SDS011;3131;42.630;23.382;2023-09-18T08:48:29;17.73;;;12.73;;
6195;SDS011;3131;42.630;23.382;2023-09-18T08:50:58;14.13;;;11.37;;
6195;SDS011;3131;42.630;23.382;2023-09-18T08:53:26;22.30;;;11.73;;
6195;SDS011;3131;42.630;23.382;2023-09-18T08:55:54;13.10;;;10.70;;
6195;SDS011;3131;42.630;23.382;2023-09-18T08:58:23;15.60;;;11.50;;
6195;SDS011;3131;42.630;23.382;2023-09-18T09:00:51;14.63;;;9.97;;
6195;SDS011;3131;42.630;23.382;2023-09-18T09:03:19;12.77;;;10.97;;
6195;SDS011;3131;42.630;23.382;2023-09-18T09:05:47;15.20;;;9.80;;
6195;SDS011;3131;42.630;23.382;2023-09-18T09:08:14;12.63;;;10.57;;
6195;SDS011;3131;42.630;23.382;2023-09-18T09:10:42;12.60;;;10.10;;
6195;SDS011;3131;42.630;23.382;2023-09-18T09:13:10;18.27;;;10.97;;
6195;SDS011;3131;42.630;23.382;2023-09-18T09:15:43;12.30;;;9.00;;
6195;SDS011;3131;42.630;23.382;2023-09-18T09:18:12;15.80;;;9.60;;
6195;SDS011;3131;42.630;23.382;2023-09-18T09:20:41;14.73;;;10.40;;
6195;SDS011;3131;42.630;23.382;2023-09-18T09:23:09;15.70;;;10.37;;
6195;SDS011;3131;42.630;23.382;2023-09-18T09:25:37;15.27;;;9.10;;
6195;SDS011;3131;42.630;23.382;2023-09-18T09:28:06;9.97;;;7.90;;
6195;SDS011;3131;42.630;23.382;2023-09-18T09:30:34;12.67;;;8.20;;
6195;SDS011;3131;42.630;23.382;2023-09-18T09:33:04;12.53;;;8.77;;
6195;SDS011;3131;42.630;23.382;2023-09-18T09:35:32;12.47;;;9.37;;
6195;SDS011;3131;42.630;23.382;2023-09-18T09:38:00;11.90;;;7.90;;
6195;SDS011;3131;42.630;23.382;2023-09-18T09:40:30;10.67;;;8.43;;
6195;SDS011;3131;42.630;23.382;2023-09-18T09:42:57;14.47;;;9.53;;
6195;SDS011;3131;42.630;23.382;2023-09-18T09:45:28;12.97;;;8.87;;
6195;SDS011;3131;42.630;23.382;2023-09-18T09:47:56;11.37;;;9.17;;
6195;SDS011;3131;42.630;23.382;2023-09-18T09:50:24;18.93;;;9.73;;
6195;SDS011;3131;42.630;23.382;2023-09-18T09:52:53;12.63;;;8.97;;
6195;SDS011;3131;42.630;23.382;2023-09-18T09:55:22;14.33;;;9.43;;
6195;SDS011;3131;42.630;23.382;2023-09-18T09:57:51;12.80;;;9.30;;
6195;SDS011;3131;42.630;23.382;2023-09-18T10:00:19;11.50;;;8.20;;
6195;SDS011;3131;42.630;23.382;2023-09-18T10:02:57;12.93;;;8.57;;
6195;SDS011;3131;42.630;23.382;2023-09-18T10:05:26;10.73;;;8.23;;
6195;SDS011;3131;42.630;23.382;2023-09-18T10:07:55;13.30;;;9.33;;
6195;SDS011;3131;42.630;23.382;2023-09-18T10:10:24;10.27;;;8.47;;
6195;SDS011;3131;42.630;23.382;2023-09-18T10:12:52;10.83;;;8.90;;
6195;SDS011;3131;42.630;23.382;2023-09-18T10:15:21;15.03;;;9.23;;
6195;SDS011;3131;42.630;23.382;2023-09-18T10:17:50;13.63;;;8.60;;
6195;SDS011;3131;42.630;23.382;2023-09-18T10:20:19;12.20;;;8.17;;
6195;SDS011;3131;42.630;23.382;2023-09-18T10:22:48;13.03;;;7.43;;
6195;SDS011;3131;42.630;23.382;2023-09-18T10:25:17;11.50;;;8.73;;
6195;SDS011;3131;42.630;23.382;2023-09-18T10:27:46;12.53;;;7.77;;
6195;SDS011;3131;42.630;23.382;2023-09-18T10:30:15;11.50;;;8.23;;
6195;SDS011;3131;42.630;23.382;2023-09-18T10:32:44;11.60;;;8.23;;
6195;SDS011;3131;42.630;23.382;2023-09-18T10:35:12;11.73;;;7.17;;
6195;SDS011;3131;42.630;23.382;2023-09-18T10:37:40;14.00;;;8.15;;
6195;SDS011;3131;42.630;23.382;2023-09-18T10:40:09;10.00;;;6.25;;
6195;SDS011;3131;42.630;23.382;2023-09-18T10:42:37;9.40;;;6.62;;
6195;SDS011;3131;42.630;23.382;2023-09-18T10:45:06;9.40;;;6.62;;
6195;SDS011;3131;42.630;23.382;2023-09-18T10:47:36;9.20;;;6.30;;
6195;SDS011;3131;42.630;23.382;2023-09-18T10:50:04;10.08;;;6.10;;
6195;SDS011;3131;42.630;23.382;2023-09-18T10:52:33;10.45;;;5.65;;
6195;SDS011;3131;42.630;23.382;2023-09-18T10:55:01;7.92;;;5.60;;
6195;SDS011;3131;42.630;23.382;2023-09-18T10:57:33;10.28;;;5.60;;
6195;SDS011;3131;42.630;23.382;2023-09-18T11:00:02;7.22;;;4.75;;
6195;SDS011;3131;42.630;23.382;2023-09-18T11:02:33;7.12;;;5.05;;
6195;SDS011;3131;42.630;23.382;2023-09-18T11:05:01;5.30;;;4.53;;
6195;SDS011;3131;42.630;23.382;2023-09-18T11:07:30;7.20;;;5.17;;
6195;SDS011;3131;42.630;23.382;2023-09-18T11:09:58;9.70;;;5.70;;
6195;SDS011;3131;42.630;23.382;2023-09-18T11:12:42;8.23;;;5.72;;
6195;SDS011;3131;42.630;23.382;2023-09-18T11:15:05;11.03;;;5.05;;
6195;SDS011;3131;42.630;23.382;2023-09-18T11:17:33;11.40;;;5.03;;
6195;SDS011;3131;42.630;23.382;2023-09-18T11:20:08;11.63;;;4.87;;
6195;SDS011;3131;42.630;23.382;2023-09-18T11:22:38;6.83;;;4.40;;
6195;SDS011;3131;42.630;23.382;2023-09-18T11:27:53;8.23;;;5.42;;
6195;SDS011;3131;42.630;23.382;2023-09-18T11:30:21;7.53;;;4.92;;
6195;SDS011;3131;42.630;23.382;2023-09-18T11:32:49;6.15;;;4.37;;
6195;SDS011;3131;42.630;23.382;2023-09-18T11:35:18;6.17;;;4.78;;
6195;SDS011;3131;42.630;23.382;2023-09-18T11:37:46;6.78;;;4.10;;
6195;SDS011;3131;42.630;23.382;2023-09-18T11:40:30;5.90;;;4.75;;
6195;SDS011;3131;42.630;23.382;2023-09-18T11:45:56;8.17;;;4.73;;
6195;SDS011;3131;42.630;23.382;2023-09-18T11:48:24;7.97;;;4.77;;
6195;SDS011;3131;42.630;23.382;2023-09-18T11:50:54;13.40;;;5.90;;
6195;SDS011;3131;42.630;23.382;2023-09-18T11:53:22;7.27;;;4.70;;
6195;SDS011;3131;42.630;23.382;2023-09-18T11:55:50;11.63;;;5.43;;
6195;SDS011;3131;42.630;23.382;2023-09-18T11:58:18;7.23;;;4.57;;
6195;SDS011;3131;42.630;23.382;2023-09-18T12:00:48;8.43;;;4.40;;
6195;SDS011;3131;42.630;23.382;2023-09-18T12:03:17;9.97;;;5.43;;
6195;SDS011;3131;42.630;23.382;2023-09-18T12:06:03;9.97;;;4.73;;
6195;SDS011;3131;42.630;23.382;2023-09-18T12:08:31;12.33;;;5.27;;
6195;SDS011;3131;42.630;23.382;2023-09-18T12:10:59;6.57;;;5.37;;
6195;SDS011;3131;42.630;23.382;2023-09-18T12:13:27;5.70;;;4.60;;
6195;SDS011;3131;42.630;23.382;2023-09-18T12:15:57;9.77;;;5.77;;
6195;SDS011;3131;42.630;23.382;2023-09-18T12:18:26;6.83;;;5.33;;
6195;SDS011;3131;42.630;23.382;2023-09-18T12:20:55;8.47;;;5.03;;
6195;SDS011;3131;42.630;23.382;2023-09-18T12:23:24;9.23;;;5.23;;
6195;SDS011;3131;42.630;23.382;2023-09-18T12:25:57;8.63;;;4.97;;
6195;SDS011;3131;42.630;23.382;2023-09-18T12:28:25;6.47;;;4.70;;
6195;SDS011;3131;42.630;23.382;2023-09-18T12:30:54;8.50;;;4.65;;
6195;SDS011;3131;42.630;23.382;2023-09-18T12:33:24;10.28;;;4.85;;
6195;SDS011;3131;42.630;23.382;2023-09-18T12:35:52;8.00;;;4.87;;
6195;SDS011;3131;42.630;23.382;2023-09-18T12:38:20;6.53;;;4.50;;
6195;SDS011;3131;42.630;23.382;2023-09-18T12:40:49;6.13;;;4.97;;
6195;SDS011;3131;42.630;23.382;2023-09-18T12:43:17;12.10;;;5.12;;
6195;SDS011;3131;42.630;23.382;2023-09-18T12:45:45;9.00;;;5.00;;
6195;SDS011;3131;42.630;23.382;2023-09-18T12:48:14;8.43;;;4.75;;
6195;SDS011;3131;42.630;23.382;2023-09-18T12:50:41;4.90;;;4.40;;
6195;SDS011;3131;42.630;23.382;2023-09-18T12:53:10;8.35;;;4.47;;
6195;SDS011;3131;42.630;23.382;2023-09-18T12:55:38;8.85;;;5.40;;
6195;SDS011;3131;42.630;23.382;2023-09-18T12:58:08;5.60;;;4.40;;
6195;SDS011;3131;42.630;23.382;2023-09-18T13:00:35;9.90;;;4.62;;
6195;SDS011;3131;42.630;23.382;2023-09-18T13:03:03;13.48;;;5.22;;
6195;SDS011;3131;42.630;23.382;2023-09-18T13:05:31;9.63;;;5.10;;
6195;SDS011;3131;42.630;23.382;2023-09-18T13:08:02;10.08;;;4.67;;
6195;SDS011;3131;42.630;23.382;2023-09-18T13:10:30;6.65;;;4.67;;
6195;SDS011;3131;42.630;23.382;2023-09-18T13:12:59;8.83;;;4.55;;
6195;SDS011;3131;42.630;23.382;2023-09-18T13:15:27;7.75;;;5.00;;
6195;SDS011;3131;42.630;23.382;2023-09-18T13:17:56;6.92;;;4.35;;
6195;SDS011;3131;42.630;23.382;2023-09-18T13:20:24;5.17;;;4.30;;
6195;SDS011;3131;42.630;23.382;2023-09-18T13:22:53;6.42;;;4.20;;
6195;SDS011;3131;42.630;23.382;2023-09-18T13:25:21;5.65;;;4.17;;
6195;SDS011;3131;42.630;23.382;2023-09-18T13:27:48;7.00;;;4.28;;
6195;SDS011;3131;42.630;23.382;2023-09-18T13:30:16;6.70;;;4.60;;
6195;SDS011;3131;42.630;23.382;2023-09-18T13:32:44;7.33;;;4.10;;
6195;SDS011;3131;42.630;23.382;2023-09-18T13:35:14;5.20;;;4.58;;
6195;SDS011;3131;42.630;23.382;2023-09-18T13:37:42;7.40;;;4.85;;
6195;SDS011;3131;42.630;23.382;2023-09-18T13:40:11;5.53;;;4.05;;
6195;SDS011;3131;42.630;23.382;2023-09-18T13:42:38;6.20;;;4.55;;
6195;SDS011;3131;42.630;23.382;2023-09-18T13:45:07;6.90;;;4.25;;
6195;SDS011;3131;42.630;23.382;2023-09-18T13:47:35;10.10;;;4.80;;
6195;SDS011;3131;42.630;23.382;2023-09-18T13:50:04;15.03;;;4.85;;
6195;SDS011;3131;42.630;23.382;2023-09-18T13:52:32;10.88;;;4.90;;
6195;SDS011;3131;42.630;23.382;2023-09-18T13:55:00;10.58;;;4.62;;
6195;SDS011;3131;42.630;23.382;2023-09-18T13:57:30;7.40;;;5.03;;
6195;SDS011;3131;42.630;23.382;2023-09-18T13:59:57;10.28;;;5.00;;
6195;SDS011;3131;42.630;23.382;2023-09-18T14:02:25;7.12;;;4.83;;
6195;SDS011;3131;42.630;23.382;2023-09-18T14:04:54;4.95;;;4.30;;
6195;SDS011;3131;42.630;23.382;2023-09-18T14:07:21;7.17;;;4.65;;
6195;SDS011;3131;42.630;23.382;2023-09-18T14:09:49;7.83;;;4.58;;
6195;SDS011;3131;42.630;23.382;2023-09-18T14:12:16;9.53;;;5.05;;
6195;SDS011;3131;42.630;23.382;2023-09-18T14:14:44;7.87;;;4.35;;
6195;SDS011;3131;42.630;23.382;2023-09-18T14:17:12;6.20;;;4.00;;
6195;SDS011;3131;42.630;23.382;2023-09-18T14:19:40;5.13;;;4.60;;
6195;SDS011;3131;42.630;23.382;2023-09-18T14:22:07;11.30;;;5.45;;
6195;SDS011;3131;42.630;23.382;2023-09-18T14:24:35;6.23;;;4.30;;
6195;SDS011;3131;42.630;23.382;2023-09-18T14:27:04;7.57;;;4.93;;
6195;SDS011;3131;42.630;23.382;2023-09-18T14:29:32;13.00;;;4.80;;
6195;SDS011;3131;42.630;23.382;2023-09-18T14:32:00;7.53;;;4.90;;
6195;SDS011;3131;42.630;23.382;2023-09-18T14:34:28;9.73;;;4.77;;
6195;SDS011;3131;42.630;23.382;2023-09-18T14:36:56;6.67;;;4.47;;
6195;SDS011;3131;42.630;23.382;2023-09-18T14:39:23;5.17;;;4.10;;
6195;SDS011;3131;42.630;23.382;2023-09-18T14:41:51;11.90;;;5.30;;
6195;SDS011;3131;42.630;23.382;2023-09-18T14:44:19;9.40;;;5.50;;
6195;SDS011;3131;42.630;23.382;2023-09-18T14:46:47;5.93;;;4.77;;
6195;SDS011;3131;42.630;23.382;2023-09-18T14:49:15;9.47;;;4.83;;
6195;SDS011;3131;42.630;23.382;2023-09-18T14:51:43;10.43;;;5.57;;
6195;SDS011;3131;42.630;23.382;2023-09-18T14:54:11;11.00;;;5.87;;